Wautoma, WI

3:35 PM CDT on August 24, 2016 (GMT -0500)
Wautoma | | Change Station

Elev 860 ft 44.04 °N, 89.30 °W | Updated 39 minutes ago

Overcast
Overcast
77 °F
Feels Like 77 °F
N
10
Wind Variable Wind from WSW

Today
High -- | Low -- °F
--% Chance of Precip.
Yesterday
High -- | Low -- °F
Precip. -- in
Pressure 29.94 in
Visibility 10.0 miles
Clouds Overcast 2200 ft
Dew Point 71 °F
Humidity 82%
Rainfall 0.72 in
Snow Depth Not available.
6:11 AM 7:46 PM
Waning Gibbous, 53% visible
METAR KY50 241956Z AUTO 25009KT 10SM OVC022 25/22 A2990 RMK AO2 SLP139 P0007 T02500217
Pressure 29.94 in
Visibility 10.0 miles
Clouds Overcast 2200 ft
Dew Point 71 °F
Humidity 82%
Rainfall 0.72 in
Snow Depth Not available.
6:11 AM 7:46 PM
Waning Gibbous, 53% visible
METAR KY50 241956Z AUTO 25009KT 10SM OVC022 25/22 A2990 RMK AO2 SLP139 P0007 T02500217

10-Day Weather Forecast

Almanac

Astronomy

Aug. 24, 2016 Rise Set
Actual Time
Civil Twilight
Nautical Twilight
Astronomical Twilight
Moon
Length of Visible Light
Length of Day
Tomorrow will be .
, % of the Moon is Illuminated

Today's Extremes

State Highs State Lows

Community

WunderPhotos

Upload Photos

1,934,702 photos uploaded!

WunderBlog® & News

Nearby

Air Quality

  Air Quality AQ Index Pollutant
Not available.

Snow Depth

Station Depth Elevation

Earthquake Activity

City Distance Mag. Time & Date
Minimum magnitude displayed is 2.5.

Coastal Water Temperatures

Place Temperature

Stations

Nearby Weather Stations

Station Location Temp. Windchill Dew Point Humidity Wind Precip. Elev Updated Type
                   

Watches & Warnings

There are currently no watches in effect.